Bookmark and Share
Track history (hours):
 

Oluja

Last reported at 2014-Apr-18 14:27 UTC. Time now 2014-Apr-23 07:06 UTC.
Position N 25°51' W 079°28'.

Length 188 m; draft 8.1 m.

Type: Cargo ship. MMSI: 538003345.

NotesDate/timePositionNaut miles runAvg speedWind from/ knotsBaromVisibWave heightAir tempDewpointWater temp
2014-Apr-18 14:27N 25°51' W 079°28'1011.0
2014-Apr-18 13:33N 25°60' W 079°23'1211.5
2014-Apr-18 12:29N 26°11' W 079°16'7137477.7
2014-Apr-17 21:33N 26°08' E 053°15'  
2014-Apr-09 13:30N 37°25' W 030°50'1111.6
2014-Apr-09 12:33N 37°26' W 030°36'4211.9
2014-Apr-09 09:04N 37°29' W 029°44'812.2
2014-Apr-09 08:25N 37°29' W 029°34'1112.5
2014-Apr-09 07:33N 37°29' W 029°21'1312.6
2014-Apr-09 06:33N 37°29' W 029°05'1212.2
2014-Apr-09 05:33N 37°29' W 028°49'1212.3
2014-Apr-09 04:33N 37°29' W 028°34'1212.2
2014-Apr-09 03:33N 37°28' W 028°18'1212.1
2014-Apr-09 02:33N 37°28' W 028°03'1212.2
2014-Apr-09 01:33N 37°28' W 027°48'1312.2
2014-Apr-09 00:31N 37°28' W 027°32'1111.9
2014-Apr-08 23:33N 37°28' W 027°17'1211.9
2014-Apr-08 22:33N 37°28' W 027°02'1211.8
2014-Apr-08 21:33N 37°28' W 026°48'1211.5
2014-Apr-08 20:33N 37°28' W 026°33'1211.7
2014-Apr-08 19:34N 37°28' W 026°18'1211.8
2014-Apr-08 18:33N 37°28' W 026°03'1212.1
2014-Apr-08 17:33N 37°27' W 025°48'1312.5
2014-Apr-08 16:33N 37°27' W 025°32'1312.8
2014-Apr-08 15:33N 37°27' W 025°16'1312.7
2014-Apr-08 14:33N 37°27' W 025°00'  

Dump ship's entire track history

sailing weather and tide predictions

Oluja — V7QE8 — position and weather